CheckWX is a tool to help pilots better visualize weather data.  It is not intended as a substitute for an official pre-flight weather briefing.

10:46:03 UTC

SCVD METAR
Pichoy Airport
Valdivia, Chile
Current

46 mins ago

SCVD 181000Z AUTO 00000KT 9999 OVC009 10/10 Q1014
Observed
Apr-18 @ 10:00 UTC
Visibility
10,000+ meters
Flight Rules
IFR
Cloud Levels
  • Overcast at 900' AGL
Temperature
10°C / 50°F
Dewpoint
10°C / 50°F
Humidity
100%
Altimeter
29.94" Hg
Pressure
1013.92 hPa
Previous

2 hours ago

SCVD 180900Z AUTO VRB02KT 9999 OVC009 11/10 Q1013
Observed
Apr-18 @ 09:00 UTC
Wind
  • Variable at 2 KTS
Visibility
10,000+ meters
Flight Rules
IFR
Cloud Levels
  • Overcast at 900' AGL
Temperature
11°C / 52°F
Dewpoint
10°C / 50°F
Humidity
94%
Altimeter
29.91" Hg
Pressure
1012.92 hPa
Previous

3 hours ago

SCVD 180800Z AUTO 00000KT 9999 OVC009 11/11 Q1014
Observed
Apr-18 @ 08:00 UTC
Visibility
10,000+ meters
Flight Rules
IFR
Cloud Levels
  • Overcast at 900' AGL
Temperature
11°C / 52°F
Dewpoint
11°C / 52°F
Humidity
100%
Altimeter
29.94" Hg
Pressure
1013.92 hPa